Terminal Aerodrome Forecast
Issued by NWS

Home | Current Version | Previous Version | Text Only | Print | Product List | Glossary On
Versions: 1 2 3 4 5 6 7 8 9 10 11 12 13 14 15 16 17 18
000
FTUS46 KSGX 070904 AAB
TAFCRQ
TAF AMD
KCRQ 070904Z 0709/0806 VRB04KT P6SM SCT020 OVC050
     FM071200 VRB05KT P6SM VCSH BKN020 OVC035
     FM071500 21009KT P6SM VCSH BKN025 OVC045
     FM071800 22012G20KT P6SM VCSH SCT025 BKN050=

USA.gov is the U.S. government's official web portal to all federal, state and local government web resources and services.